createdAt,value
2022-12-17T00:01:39.663Z,18.2
2022-12-17T00:04:41.618Z,17.4
2022-12-17T00:07:43.594Z,16.8
2022-12-17T00:10:45.548Z,22.4
2022-12-17T00:13:47.519Z,16.2
2022-12-17T00:16:49.470Z,18.3
2022-12-17T00:19:51.453Z,23.1
2022-12-17T00:22:53.440Z,19.8
2022-12-17T00:25:55.390Z,15.1
2022-12-17T00:28:57.330Z,15.9
2022-12-17T00:31:59.300Z,15.5
2022-12-17T00:35:01.279Z,18.7
2022-12-17T00:38:03.222Z,21.9
2022-12-17T00:41:05.181Z,24.4
2022-12-17T00:44:07.133Z,20.9
2022-12-17T00:47:09.180Z,22.5
2022-12-17T00:50:11.069Z,22.6
2022-12-17T00:53:13.045Z,26.7
2022-12-17T00:56:15.009Z,20.9
2022-12-17T00:59:16.988Z,26.2
2022-12-17T01:02:19.065Z,32.6
2022-12-17T01:05:20.911Z,26.5
2022-12-17T01:08:22.878Z,25.4
2022-12-17T01:11:24.851Z,31.5
2022-12-17T01:14:26.794Z,23.1
2022-12-17T01:17:28.784Z,25
2022-12-17T01:20:30.738Z,38.2
2022-12-17T01:23:32.803Z,32.4
2022-12-17T01:26:34.699Z,25
2022-12-17T01:29:36.645Z,28.3
2022-12-17T01:32:38.617Z,27.2
2022-12-17T01:35:40.568Z,24.1
2022-12-17T01:38:42.530Z,24.9
2022-12-17T01:41:44.491Z,32.8
2022-12-17T01:44:46.441Z,30.1
2022-12-17T01:47:48.400Z,31.1
2022-12-17T01:50:50.392Z,28.3
2022-12-17T01:53:52.350Z,32.9
2022-12-17T01:56:54.309Z,39.3
2022-12-17T01:59:56.263Z,32.3
2022-12-17T02:02:58.332Z,30
2022-12-17T02:06:00.218Z,33.7
2022-12-17T02:09:02.138Z,29.6
2022-12-17T02:12:04.112Z,30.9
2022-12-17T02:15:06.065Z,31
2022-12-17T02:18:08.048Z,32.2
2022-12-17T02:21:09.996Z,27.8
2022-12-17T02:24:11.965Z,25.5
2022-12-17T02:27:13.938Z,39.9
2022-12-17T02:30:15.894Z,34.1
2022-12-17T02:33:17.865Z,31.9
2022-12-17T02:36:19.830Z,37
2022-12-17T02:39:21.800Z,32.9
2022-12-17T02:42:23.781Z,32.8
2022-12-17T02:45:25.743Z,27.8
2022-12-17T02:48:27.689Z,35.3
2022-12-17T02:51:29.655Z,37.2
2022-12-17T02:54:31.639Z,34.5
2022-12-17T02:57:33.598Z,35.3
2022-12-17T03:00:35.571Z,37.9
2022-12-17T03:03:37.951Z,32.5
2022-12-17T03:06:39.498Z,30.1
2022-12-17T03:09:41.447Z,39.1
2022-12-17T03:12:43.433Z,36.6
2022-12-17T03:15:45.366Z,31.2
2022-12-17T03:18:47.329Z,39.2
2022-12-17T03:21:49.298Z,37.6
2022-12-17T03:24:51.278Z,41.4
2022-12-17T03:27:53.212Z,35.2
2022-12-17T03:30:55.214Z,43.2
2022-12-17T03:33:57.116Z,40.3
2022-12-17T03:36:59.080Z,40.3
2022-12-17T03:40:01.036Z,31.6
2022-12-17T03:43:02.999Z,30.4
2022-12-17T03:46:05.028Z,37
2022-12-17T03:49:06.919Z,37.7
2022-12-17T03:52:08.888Z,40.2
2022-12-17T03:55:10.851Z,37.1
2022-12-17T03:58:12.808Z,36.9
2022-12-17T04:01:14.876Z,34.3
2022-12-17T04:04:16.735Z,40.8
2022-12-17T04:07:18.911Z,29
2022-12-17T04:10:20.672Z,32.4
2022-12-17T04:13:22.629Z,36.1
2022-12-17T04:16:24.578Z,36.8
2022-12-17T04:19:26.529Z,35.3
2022-12-17T04:22:28.488Z,39.6
2022-12-17T04:25:30.473Z,40.9
2022-12-17T04:28:32.437Z,32.6
2022-12-17T04:31:34.442Z,36.1
2022-12-17T04:34:36.350Z,39.6
2022-12-17T04:37:38.316Z,38.9
2022-12-17T04:40:40.288Z,36.3
2022-12-17T04:43:42.255Z,31.4
2022-12-17T04:46:44.263Z,37.7
2022-12-17T04:49:46.174Z,41.4
2022-12-17T04:52:48.141Z,32.8
2022-12-17T04:55:50.106Z,36.7
2022-12-17T04:58:52.077Z,38.2
2022-12-17T05:01:54.119Z,39.2
2022-12-17T05:04:55.985Z,33.6
2022-12-17T05:07:57.930Z,36.6
2022-12-17T05:10:59.903Z,36.5
2022-12-17T05:14:01.868Z,36.9
2022-12-17T05:17:03.832Z,38.7
2022-12-17T05:20:05.803Z,37.5
2022-12-17T05:23:07.770Z,37.9
2022-12-17T05:26:09.719Z,39.6
2022-12-17T05:29:15.747Z,37.3
2022-12-17T05:32:13.646Z,35.8
2022-12-17T05:35:15.736Z,36.7
2022-12-17T05:38:17.555Z,39.9
2022-12-17T05:41:19.500Z,38.9
2022-12-17T05:44:21.461Z,32.8
2022-12-17T05:47:23.433Z,33.1
2022-12-17T05:50:25.382Z,40
2022-12-17T05:53:27.367Z,43.8
2022-12-17T05:56:29.340Z,34.6
2022-12-17T05:59:31.292Z,39.3
2022-12-17T06:02:33.344Z,36.1
2022-12-17T06:05:35.197Z,38.2
2022-12-17T06:08:37.188Z,36.4
2022-12-17T06:11:39.135Z,33.9
2022-12-17T06:14:41.099Z,33.6
2022-12-17T06:17:43.036Z,35.9
2022-12-17T06:20:44.990Z,37
2022-12-17T06:23:46.958Z,29.1
2022-12-17T06:26:49.148Z,31.2
2022-12-17T06:29:50.887Z,35.5
2022-12-17T06:32:52.852Z,40.3
2022-12-17T06:35:54.807Z,34.4
2022-12-17T06:38:56.766Z,32.6
2022-12-17T06:42:04.111Z,32.6
2022-12-17T06:45:00.739Z,33
2022-12-17T06:48:02.657Z,37.1
2022-12-17T06:51:04.623Z,32.3
2022-12-17T06:54:06.589Z,34.6
2022-12-17T06:57:08.561Z,35.7
2022-12-17T07:00:10.549Z,35.9
2022-12-17T07:03:14.760Z,31.9
2022-12-17T07:06:14.464Z,36.3
2022-12-17T07:09:16.436Z,29.1
2022-12-17T07:12:18.380Z,27.7
2022-12-17T07:15:20.351Z,33.2
2022-12-17T07:18:22.336Z,39.3
2022-12-17T07:21:24.302Z,29.3
2022-12-17T07:24:26.253Z,46.8
2022-12-17T07:27:28.338Z,35.4
2022-12-17T07:30:30.311Z,38.9
2022-12-17T07:33:32.300Z,48
2022-12-17T07:36:34.255Z,43.3
2022-12-17T07:39:36.195Z,39.5
2022-12-17T07:42:38.160Z,54.4
2022-12-17T07:45:40.200Z,50
2022-12-17T07:48:42.108Z,48.7
2022-12-17T07:51:44.072Z,49.5
2022-12-17T07:54:46.022Z,53.2
2022-12-17T07:57:47.969Z,43.7
2022-12-17T08:00:50.013Z,38.9
2022-12-17T08:03:51.883Z,50.1
2022-12-17T08:06:58.458Z,42
2022-12-17T08:09:55.841Z,40.6
2022-12-17T08:12:57.798Z,37.5
2022-12-17T08:15:59.795Z,41.1
2022-12-17T08:19:01.799Z,37
2022-12-17T08:22:03.744Z,32.7
2022-12-17T08:25:05.681Z,40.7
2022-12-17T08:28:11.281Z,44
2022-12-17T08:31:09.691Z,55.4
2022-12-17T08:34:11.568Z,49.3
2022-12-17T08:37:13.528Z,39
2022-12-17T08:40:15.468Z,44.8
2022-12-17T08:43:17.480Z,36.9
2022-12-17T08:46:19.427Z,42.2
2022-12-17T08:49:21.365Z,36.8
2022-12-17T08:52:23.327Z,42
2022-12-17T08:55:25.270Z,47.7
2022-12-17T08:58:27.244Z,37.4
2022-12-17T09:01:29.261Z,46.1
2022-12-17T09:04:31.212Z,53.9
2022-12-17T09:07:33.167Z,49.3
2022-12-17T09:10:35.102Z,39.8
2022-12-17T09:13:37.373Z,49.5
2022-12-17T09:16:39.185Z,46.6
2022-12-17T09:19:40.979Z,50.3
2022-12-17T09:22:42.939Z,37.5
2022-12-17T09:25:44.949Z,40.3
2022-12-17T09:28:46.895Z,54.1
2022-12-17T09:31:48.851Z,38.7
2022-12-17T09:34:50.863Z,51.7
2022-12-17T09:37:52.819Z,45.6
2022-12-17T09:40:54.802Z,47.5
2022-12-17T09:43:56.756Z,41.1
2022-12-17T09:46:58.725Z,55.5
2022-12-17T09:50:00.679Z,54.6
2022-12-17T09:53:02.690Z,56.7
2022-12-17T09:56:04.660Z,48
2022-12-17T09:59:06.610Z,53
2022-12-17T10:02:08.702Z,68
2022-12-17T10:05:10.519Z,76.3
2022-12-17T10:08:12.475Z,62.3
2022-12-17T10:11:14.458Z,49.4
2022-12-17T10:14:16.398Z,55.8
2022-12-17T10:17:18.472Z,48.5
2022-12-17T10:20:20.329Z,47
2022-12-17T10:23:22.282Z,56.5
2022-12-17T10:26:24.244Z,64.2
2022-12-17T10:29:26.205Z,45.4
2022-12-17T10:32:28.181Z,36.7
2022-12-17T10:35:30.149Z,36.5
2022-12-17T10:38:32.107Z,37.1
2022-12-17T10:41:34.107Z,43.6
2022-12-17T10:44:36.076Z,38.9
2022-12-17T10:47:38.018Z,39
2022-12-17T10:50:39.979Z,31.5
2022-12-17T10:53:41.940Z,33.2
2022-12-17T10:56:43.901Z,38.2
2022-12-17T10:59:45.862Z,37.3
2022-12-17T11:02:48.023Z,41.4
2022-12-17T11:05:50.578Z,41.5
2022-12-17T11:08:51.759Z,41.2
2022-12-17T11:11:53.705Z,33.8
2022-12-17T11:14:55.673Z,44.6
2022-12-17T11:17:57.646Z,44.3
2022-12-17T11:20:59.606Z,35.5
2022-12-17T11:24:01.575Z,38.1
2022-12-17T11:27:03.569Z,45.2
2022-12-17T11:30:05.519Z,37.1
2022-12-17T11:33:07.469Z,39.4
2022-12-17T11:36:09.384Z,33.2
2022-12-17T11:39:11.365Z,39.1
2022-12-17T11:42:13.324Z,35.5
2022-12-17T11:45:15.274Z,36.7
2022-12-17T11:48:17.258Z,29.4
2022-12-17T11:51:19.524Z,39
2022-12-17T11:54:21.195Z,44.4
2022-12-17T11:57:23.147Z,41
2022-12-17T12:00:25.108Z,48
2022-12-17T12:03:27.201Z,36.2
2022-12-17T12:06:29.026Z,42.2
2022-12-17T12:09:31.000Z,46
2022-12-17T12:12:32.943Z,47
2022-12-17T12:15:34.966Z,43
2022-12-17T12:18:37.394Z,43
2022-12-17T12:21:38.899Z,41
2022-12-17T12:24:40.861Z,39.8
2022-12-17T12:27:43.171Z,37.7
2022-12-17T12:30:44.772Z,36.7
2022-12-17T12:33:46.741Z,43.9
2022-12-17T12:36:48.711Z,39.7
2022-12-17T12:39:50.730Z,41.9
2022-12-17T12:42:52.637Z,45.9
2022-12-17T12:45:54.699Z,51.3
2022-12-17T12:48:56.555Z,45.4
2022-12-17T12:51:58.516Z,38.4
2022-12-17T12:55:00.467Z,38.9
2022-12-17T12:58:02.468Z,45.9
2022-12-17T13:01:04.513Z,40.3
2022-12-17T13:04:06.448Z,48.5
2022-12-17T13:07:08.374Z,52.9
2022-12-17T13:10:10.385Z,43.2
2022-12-17T13:13:12.293Z,47.5
2022-12-17T13:16:14.306Z,51.1
2022-12-17T13:19:16.225Z,46.4
2022-12-17T13:22:23.885Z,56.5
2022-12-17T13:25:20.119Z,48.5
2022-12-17T13:28:25.702Z,55
2022-12-17T13:31:24.085Z,52
2022-12-17T13:34:26.029Z,46.3
2022-12-17T13:37:28.029Z,59
2022-12-17T13:40:29.974Z,61
2022-12-17T13:43:31.918Z,43.2
2022-12-17T13:46:33.869Z,52.3
2022-12-17T13:49:35.929Z,52.1
2022-12-17T13:52:37.837Z,59.3
2022-12-17T13:55:39.769Z,58.2
2022-12-17T13:58:41.697Z,56.6
2022-12-17T14:01:43.760Z,61.5
2022-12-17T14:04:45.638Z,51.9
2022-12-17T14:07:47.614Z,50.8
2022-12-17T14:10:49.563Z,49.9
2022-12-17T14:13:51.544Z,59.7
2022-12-17T14:16:53.634Z,61.8
2022-12-17T14:19:55.461Z,66.1
2022-12-17T14:22:57.426Z,66
2022-12-17T14:25:59.389Z,61.1
2022-12-17T14:29:01.369Z,48.3
2022-12-17T14:32:03.414Z,51.1
2022-12-17T14:35:05.319Z,53.3
2022-12-17T14:38:07.288Z,57.4
2022-12-17T14:41:09.248Z,54.9
2022-12-17T14:44:11.188Z,46.7
2022-12-17T14:47:13.148Z,55.3
2022-12-17T14:50:15.112Z,54.1
2022-12-17T14:53:17.104Z,53
2022-12-17T14:56:19.076Z,52
2022-12-17T14:59:21.031Z,42.8
2022-12-17T15:02:23.115Z,63.3
2022-12-17T15:05:24.953Z,61.7
2022-12-17T15:08:26.913Z,68.1
2022-12-17T15:11:28.893Z,66.3
2022-12-17T15:14:30.868Z,65.5
2022-12-17T15:17:32.809Z,64.2
2022-12-17T15:20:34.783Z,54.9
2022-12-17T15:23:36.758Z,62.2
2022-12-17T15:26:38.749Z,47.3
2022-12-17T15:29:40.680Z,53.5
2022-12-17T15:32:42.654Z,57.6
2022-12-17T15:35:44.717Z,60.6
2022-12-17T15:38:46.736Z,57.6
2022-12-17T15:41:48.675Z,59.4
2022-12-17T15:44:50.631Z,46.7
2022-12-17T15:47:52.588Z,54.7
2022-12-17T15:50:54.599Z,62.1
2022-12-17T15:53:56.545Z,56.7
2022-12-17T15:56:58.502Z,61.6
2022-12-17T16:00:00.464Z,64.4
2022-12-17T16:03:02.561Z,64.6
2022-12-17T16:06:04.372Z,62.9
2022-12-17T16:09:06.380Z,56.7
2022-12-17T16:12:08.350Z,61.6
2022-12-17T16:15:10.331Z,58.3
2022-12-17T16:18:12.331Z,54.6
2022-12-17T16:21:14.331Z,57.5
2022-12-17T16:24:16.281Z,64.5
2022-12-17T16:27:18.224Z,52.7
2022-12-17T16:30:20.180Z,66.2
2022-12-17T16:33:22.155Z,54.8
2022-12-17T16:36:24.111Z,56.7
2022-12-17T16:39:26.072Z,58.8
2022-12-17T16:42:28.084Z,54.1
2022-12-17T16:45:29.986Z,59.2
2022-12-17T16:48:31.952Z,61
2022-12-17T16:51:33.922Z,61.9
2022-12-17T16:54:35.939Z,66
2022-12-17T16:57:37.907Z,57.1
2022-12-17T17:00:39.904Z,48.9
2022-12-17T17:03:41.987Z,61.5
2022-12-17T17:06:43.780Z,64
2022-12-17T17:09:45.734Z,69.3
2022-12-17T17:12:47.729Z,69.7
2022-12-17T17:15:49.963Z,67
2022-12-17T17:18:51.653Z,61.4
2022-12-17T17:21:53.675Z,70.6
2022-12-17T17:24:55.633Z,59.9
2022-12-17T17:27:57.584Z,52.9
2022-12-17T17:30:59.647Z,58.8
2022-12-17T17:34:01.541Z,63.3
2022-12-17T17:37:03.529Z,74.9
2022-12-17T17:40:05.493Z,62.4
2022-12-17T17:43:07.516Z,60.9
2022-12-17T17:46:09.547Z,67.2
2022-12-17T17:49:11.451Z,69.4
2022-12-17T17:52:13.409Z,75.2
2022-12-17T17:55:15.370Z,71.7
2022-12-17T17:58:17.321Z,68.3
2022-12-17T18:01:19.553Z,63.1
2022-12-17T18:04:21.474Z,58.3
2022-12-17T18:07:25.876Z,71
2022-12-17T18:10:25.387Z,59
2022-12-17T18:13:27.385Z,63.9
2022-12-17T18:16:29.447Z,50.7
2022-12-17T18:19:31.265Z,54.4
2022-12-17T18:22:33.261Z,61.5
2022-12-17T18:25:37.606Z,56.4
2022-12-17T18:28:37.504Z,66.4
2022-12-17T18:31:39.290Z,60.5
2022-12-17T18:34:41.231Z,78.3
2022-12-17T18:37:43.075Z,70.7
2022-12-17T18:40:45.040Z,59.8
2022-12-17T18:43:46.989Z,65.2
2022-12-17T18:46:49.063Z,51.9
2022-12-17T18:49:50.968Z,60.4
2022-12-17T18:52:52.913Z,56.2
2022-12-17T18:55:54.888Z,68.6
2022-12-17T18:58:56.824Z,69.6
2022-12-17T19:01:58.853Z,66.2
2022-12-17T19:05:00.753Z,62.7
2022-12-17T19:08:02.719Z,69.3
2022-12-17T19:11:04.719Z,65.5
2022-12-17T19:14:06.644Z,65.7
2022-12-17T19:17:08.671Z,63.7
2022-12-17T19:20:10.584Z,62.1
2022-12-17T19:23:12.579Z,51
2022-12-17T19:26:14.520Z,67
2022-12-17T19:29:16.524Z,57.1
2022-12-17T19:32:18.518Z,56.8
2022-12-17T19:35:20.402Z,63.1
2022-12-17T19:38:22.364Z,58.8
2022-12-17T19:41:24.314Z,59.1
2022-12-17T19:44:26.276Z,60
2022-12-17T19:47:28.256Z,59.8
2022-12-17T19:50:30.271Z,61.1
2022-12-17T19:53:32.175Z,57.1
2022-12-17T19:56:34.134Z,53.7
2022-12-17T19:59:36.119Z,59
2022-12-17T20:02:38.219Z,60.3
2022-12-17T20:05:40.073Z,54.5
2022-12-17T20:08:42.149Z,60.3
2022-12-17T20:11:43.970Z,49.6
2022-12-17T20:14:45.974Z,45.3
2022-12-17T20:17:47.921Z,57.7
2022-12-17T20:20:49.876Z,62.5
2022-12-17T20:23:51.806Z,54.8
2022-12-17T20:26:53.767Z,55
2022-12-17T20:29:55.736Z,55
2022-12-17T20:32:57.719Z,61.6
2022-12-17T20:35:59.661Z,67.1
2022-12-17T20:39:01.674Z,54.5
2022-12-17T20:42:03.637Z,62.1
2022-12-17T20:45:05.632Z,63.7
2022-12-17T20:48:07.573Z,71
2022-12-17T20:51:09.545Z,66.9
2022-12-17T20:54:11.501Z,48
2022-12-17T20:57:13.465Z,70.3
2022-12-17T21:00:15.436Z,59
2022-12-17T21:03:17.472Z,51.1
2022-12-17T21:06:19.307Z,53.7
2022-12-17T21:09:21.284Z,42.8
2022-12-17T21:12:23.246Z,48.5
2022-12-17T21:15:25.211Z,58.7
2022-12-17T21:18:27.174Z,53.8
2022-12-17T21:21:29.142Z,45.6
2022-12-17T21:24:31.139Z,47.7
2022-12-17T21:27:33.066Z,66.4
2022-12-17T21:30:35.137Z,54.6
2022-12-17T21:33:37.008Z,61.7
2022-12-17T21:36:39.024Z,55.5
2022-12-17T21:39:40.971Z,54.9
2022-12-17T21:42:42.892Z,56.2
2022-12-17T21:45:45.056Z,46
2022-12-17T21:48:47.053Z,58.5
2022-12-17T21:51:48.799Z,51.4
2022-12-17T21:54:50.750Z,40.1
2022-12-17T21:57:52.750Z,39.3
2022-12-17T22:00:54.696Z,54.2
2022-12-17T22:03:56.700Z,53.9
2022-12-17T22:07:04.562Z,44.5
2022-12-17T22:10:02.735Z,56.9
2022-12-17T22:13:02.647Z,53.6
2022-12-17T22:16:04.687Z,53.9
2022-12-17T22:19:06.584Z,50.3
2022-12-17T22:22:08.568Z,47.4
2022-12-17T22:25:10.782Z,46.2
2022-12-17T22:28:12.512Z,38.5
2022-12-17T22:31:14.537Z,43.7
2022-12-17T22:34:50.682Z,42.2
2022-12-17T22:40:05.183Z,45
2022-12-17T22:41:24.165Z,59.8
2022-12-17T22:44:39.826Z,60.8
2022-12-17T22:46:24.329Z,56.8
2022-12-17T22:49:26.230Z,52.2
2022-12-17T22:52:28.206Z,50.4
2022-12-17T22:55:30.161Z,52.1
2022-12-17T22:58:32.122Z,49.5
2022-12-17T23:01:34.204Z,47.6
2022-12-17T23:04:36.077Z,49.4
2022-12-17T23:07:38.046Z,58.3
2022-12-17T23:10:40.049Z,68.8
2022-12-17T23:13:42.092Z,67.1
2022-12-17T23:16:43.932Z,66.8
2022-12-17T23:19:45.952Z,58.1
2022-12-17T23:22:47.907Z,61.6
2022-12-17T23:25:49.845Z,62.7
2022-12-17T23:28:51.815Z,47.5
2022-12-17T23:31:53.761Z,55
2022-12-17T23:34:55.729Z,64.5
2022-12-17T23:37:57.689Z,69
2022-12-17T23:40:59.652Z,56.1
2022-12-17T23:44:01.608Z,64.8
2022-12-17T23:47:03.661Z,59.3
2022-12-17T23:50:05.560Z,60.3
2022-12-17T23:53:07.475Z,55.4
2022-12-17T23:56:09.473Z,59.2
2022-12-17T23:59:11.440Z,60.6
